Time;durP1;ratioP1;P1;durP2;ratioP2;P2;SDS_P1;SDS_P2;PMS_P1;PMS_P2;Temp;Humidity;BMP_temperature;BMP_pressure;BME280_temperature;BME280_humidity;BME280_pressure;Samples;Min_cycle;Max_cycle;Signal;HPM_P1;HPM_P2
2023/12/29 00:02:10;;;;;;;9.20;8.10;;;;;;;17.43;39.73;99423.40;106402;1267;60958;-63
2023/12/29 00:04:42;;;;;;;10.70;8.50;;;;;;;17.19;39.96;99427.27;104668;1267;59716;-63
2023/12/29 00:07:14;;;;;;;14.50;9.00;;;;;;;17.13;39.90;99431.98;103628;1283;73410;-63
2023/12/29 00:09:47;;;;;;;9.90;8.80;;;;;;;17.13;39.99;99430.24;104039;1267;69769;-63
2023/12/29 00:12:15;;;;;;;9.80;8.40;;;;;;;17.12;40.01;99428.48;102831;1254;3213784;-63
2023/12/29 00:15:30;;;;;;;16.00;8.90;;;;;;;17.11;40.03;99426.64;105687;1257;60674;-63
2023/12/29 00:23:02;;;;;;;12.50;8.10;;;;;;;16.92;40.66;99423.09;104690;1266;71831;-63
2023/12/29 00:26:14;;;;;;;9.50;7.80;;;;;;;16.86;40.63;99424.02;104633;1260;69101;-61
2023/12/29 00:29:28;;;;;;;10.00;8.20;;;;;;;16.91;40.77;99424.00;104578;1270;72527;-61
2023/12/29 00:36:59;;;;;;;10.10;8.40;;;;;;;17.07;40.47;99420.22;105128;1257;61282;-62
2023/12/29 00:40:12;;;;;;;12.90;8.10;;;;;;;16.99;40.79;99419.40;104636;1259;72718;-61
2023/12/29 00:43:24;;;;;;;11.00;8.30;;;;;;;17.03;40.66;99410.37;104814;1259;68061;-62
2023/12/29 00:46:04;;;;;;;11.10;7.60;;;;;;;17.01;40.81;99406.49;104655;1260;71139;-61
2023/12/29 00:49:16;;;;;;;11.90;8.30;;;;;;;17.03;40.87;99401.21;104669;1257;60735;-62
2023/12/29 00:52:28;;;;;;;11.20;8.80;;;;;;;17.00;40.89;99398.73;104647;1261;60893;-62
2023/12/29 00:55:34;;;;;;;11.30;8.50;;;;;;;16.98;40.98;99397.11;104936;1256;73271;-61
2023/12/29 00:58:02;;;;;;;10.80;8.30;;;;;;;17.11;40.94;99389.48;104834;1259;69929;-61
2023/12/29 01:05:35;;;;;;;10.00;8.50;;;;;;;17.06;41.03;99385.57;104552;1259;62016;-61
2023/12/29 01:08:47;;;;;;;9.80;8.30;;;;;;;16.94;41.38;99387.87;104500;1277;60754;-61
2023/12/29 01:11:58;;;;;;;12.90;8.90;;;;;;;16.92;41.35;99382.34;104608;1257;73297;-61
2023/12/29 01:14:49;;;;;;;9.70;8.30;;;;;;;16.87;41.45;99387.98;105299;1255;69692;-61
2023/12/29 01:18:01;;;;;;;11.10;8.40;;;;;;;16.78;41.83;99382.49;104427;1258;71578;-61
2023/12/29 01:20:33;;;;;;;10.80;8.40;;;;;;;16.88;41.68;99387.07;107297;1254;60692;-61
2023/12/29 01:23:03;;;;;;;11.60;8.30;;;;;;;16.95;41.68;99386.16;107977;1254;59814;-62
2023/12/29 01:25:34;;;;;;;8.80;8.00;;;;;;;16.70;42.21;99390.96;105469;1258;73032;-61
2023/12/29 01:28:05;;;;;;;9.10;8.20;;;;;;;16.88;42.04;99383.52;104713;1260;69205;-62
2023/12/29 01:30:36;;;;;;;10.90;9.00;;;;;;;16.85;42.19;99380.90;105667;1259;73319;-62
2023/12/29 01:33:08;;;;;;;10.10;8.00;;;;;;;16.83;42.27;99375.36;104510;1258;61451;-60
2023/12/29 01:36:16;;;;;;;11.10;8.30;;;;;;;16.95;42.31;99370.10;104453;1267;59866;-61
2023/12/29 01:39:02;;;;;;;12.00;8.80;;;;;;;17.09;42.02;99363.02;104417;1261;71877;-61
2023/12/29 01:42:20;;;;;;;10.50;9.10;;;;;;;16.93;42.33;99361.43;104472;1260;70022;-60
2023/12/29 01:45:32;;;;;;;10.20;8.30;;;;;;;17.08;42.18;99356.89;104707;1263;72788;-60
2023/12/29 01:48:53;;;;;;;10.10;8.60;;;;;;;17.07;42.13;99358.74;105184;1254;60564;-60
2023/12/29 01:55:26;;;;;;;11.00;8.40;;;;;;;17.20;42.00;99358.31;104650;1259;73324;-61
2023/12/29 01:57:59;;;;;;;11.70;9.00;;;;;;;16.98;42.31;99356.23;104220;1263;69313;-61
2023/12/29 02:00:31;;;;;;;10.40;9.00;;;;;;;16.92;42.41;99357.70;104985;1257;72447;-61
2023/12/29 02:03:07;;;;;;;10.60;8.80;;;;;;;16.96;42.38;99359.92;104650;1259;61586;-61
2023/12/29 05:51:36;;;;;;;14.50;10.80;;;;;;;15.59;41.93;99343.71;103709;1291;601206;-60
2023/12/29 05:54:07;;;;;;;14.30;10.30;;;;;;;15.38;42.07;99346.20;104017;1268;61568;-60
2023/12/29 05:56:37;;;;;;;14.90;11.20;;;;;;;15.37;42.04;99352.98;103884;1269;60690;-61
2023/12/29 05:59:08;;;;;;;13.40;10.90;;;;;;;15.34;42.06;99354.64;104876;1254;70724;-60
2023/12/29 06:01:41;;;;;;;13.30;11.00;;;;;;;15.17;42.29;99363.70;104993;1258;68179;-59
2023/12/29 06:04:09;;;;;;;15.90;11.00;;;;;;;15.14;42.29;99367.97;102642;1256;3243028;-61
2023/12/29 06:10:11;;;;;;;12.00;10.50;;;;;;;15.24;42.09;99367.83;104912;1253;59835;-59
2023/12/29 06:12:42;;;;;;;14.60;11.90;;;;;;;15.40;41.68;99371.20;108310;1251;72030;-60
2023/12/29 06:15:12;;;;;;;18.00;13.20;;;;;;;15.51;41.58;99372.89;108367;1251;69665;-61
2023/12/29 06:17:43;;;;;;;19.90;13.60;;;;;;;15.38;41.62;99372.55;108314;1251;72724;-61
2023/12/29 06:28:50;;;;;;;16.80;12.40;;;;;;;14.73;42.89;99374.30;104795;1256;72778;-62
2023/12/29 06:36:21;;;;;;;13.80;10.80;;;;;;;14.72;43.26;99359.55;104870;1255;73969;-61
2023/12/29 06:39:36;;;;;;;15.60;11.40;;;;;;;14.71;43.19;99356.63;104616;1251;60838;-61
2023/12/29 06:42:51;;;;;;;15.60;11.10;;;;;;;14.78;43.15;99349.66;104775;1256;59749;-61
2023/12/29 06:50:23;;;;;;;18.40;11.10;;;;;;;14.90;43.04;99347.09;104751;1251;70295;-62
2023/12/29 06:52:50;;;;;;;18.00;12.70;;;;;;;15.05;42.80;99349.64;105232;1251;71594;-61
2023/12/29 06:58:35;;;;;;;17.70;11.60;;;;;;;15.25;42.67;99350.29;105740;1251;59632;-68
2023/12/29 07:01:33;;;;;;;16.40;11.90;;;;;;;15.14;42.76;99351.48;104780;1256;72882;-70
2023/12/29 07:09:08;;;;;;;17.30;11.40;;;;;;;15.42;42.57;99353.16;104821;1269;74114;-69
2023/12/29 07:16:10;;;;;;;14.50;11.80;;;;;;;15.37;42.78;99344.66;105149;1250;60098;-70
2023/12/29 07:22:45;;;;;;;15.20;11.50;;;;;;;15.44;42.76;99344.27;104582;1257;69177;-68
2023/12/29 07:25:16;;;;;;;16.20;12.10;;;;;;;15.66;42.44;99353.34;104877;1258;72429;-69
2023/12/29 07:27:48;;;;;;;17.50;11.90;;;;;;;15.87;42.25;99358.48;104646;1256;60682;-69
2023/12/29 07:30:19;;;;;;;15.70;11.90;;;;;;;15.68;42.32;99362.95;108112;1251;62099;-70
2023/12/29 07:32:51;;;;;;;16.40;10.60;;;;;;;15.66;42.74;99367.83;108382;1253;72570;-70
2023/12/29 07:35:22;;;;;;;15.60;11.10;;;;;;;15.65;42.99;99366.87;108343;1250;70400;-69
2023/12/29 07:37:53;;;;;;;13.40;10.20;;;;;;;16.04;42.71;99367.91;106678;1256;72563;-69
2023/12/29 07:41:04;;;;;;;16.00;11.70;;;;;;;16.32;42.25;99358.14;105363;1256;60751;-71
2023/12/29 07:44:16;;;;;;;19.00;11.10;;;;;;;16.01;42.66;99356.10;104776;1257;60217;-73
2023/12/29 07:47:28;;;;;;;12.40;10.40;;;;;;;15.91;43.04;99358.89;104685;1258;72886;-71
2023/12/29 07:50:43;;;;;;;14.70;11.20;;;;;;;16.03;43.21;99357.19;104514;1264;68398;-71
2023/12/29 07:53:58;;;;;;;15.70;10.90;;;;;;;16.19;42.87;99360.98;104763;1258;71360;-69
2023/12/29 07:56:48;;;;;;;17.30;10.80;;;;;;;16.19;43.00;99359.23;105298;1256;60889;-69
2023/12/29 08:00:00;;;;;;;12.80;9.70;;;;;;;16.42;42.73;99364.30;104719;1256;59826;-69
2023/12/29 08:02:53;;;;;;;11.40;8.80;;;;;;;16.65;42.34;99367.48;104883;1250;72897;-70
2023/12/29 08:05:52;;;;;;;13.50;9.10;;;;;;;16.65;42.43;99368.84;104519;1264;69609;-65
2023/12/29 08:09:04;;;;;;;12.10;9.10;;;;;;;16.78;42.29;99374.64;104815;1254;72765;-66
2023/12/29 08:11:42;;;;;;;11.90;9.80;;;;;;;16.73;42.53;99374.85;104797;1257;60793;-66
2023/12/29 08:14:13;;;;;;;11.10;8.60;;;;;;;16.99;42.11;99369.45;108397;1253;60083;-65
2023/12/29 08:16:44;;;;;;;11.00;9.30;;;;;;;17.11;42.13;99368.54;108275;1251;72776;-66
2023/12/29 08:19:16;;;;;;;11.30;8.20;;;;;;;17.06;42.31;99373.86;108344;1252;69189;-67
2023/12/29 08:21:53;;;;;;;11.60;8.70;;;;;;;17.17;42.24;99379.97;108333;1252;72361;-68
2023/12/29 08:24:30;;;;;;;10.10;8.80;;;;;;;17.33;42.09;99377.38;108358;1253;61308;-64
2023/12/29 08:27:00;;;;;;;14.10;9.50;;;;;;;17.38;42.00;99375.98;108410;1250;60333;-63
2023/12/29 08:29:41;;;;;;;11.30;8.60;;;;;;;17.40;42.09;99369.54;108439;1253;72819;-62
2023/12/29 08:32:17;;;;;;;11.50;8.20;;;;;;;17.49;42.03;99366.97;108358;1253;68463;-62
2023/12/29 08:34:51;;;;;;;12.40;8.80;;;;;;;17.39;42.16;99366.34;108381;1252;72885;-63
2023/12/29 08:38:12;;;;;;;9.60;8.60;;;;;;;17.39;42.24;99365.19;108382;1253;60603;-67
2023/12/29 08:41:27;;;;;;;10.30;8.80;;;;;;;17.52;42.10;99367.41;108420;1252;59687;-62
2023/12/29 08:48:14;;;;;;;10.10;8.90;;;;;;;17.57;42.00;99363.55;108453;1252;69285;-59
2023/12/29 08:55:44;;;;;;;10.80;8.60;;;;;;;17.59;42.20;99364.61;107649;1257;61207;-60
2023/12/29 08:58:12;;;;;;;12.60;8.40;;;;;;;17.45;42.40;99360.86;107877;1253;60073;-59
2023/12/29 09:10:03;;;;;;;10.90;7.80;;;;;;;17.35;42.65;99354.91;108432;1253;72409;-59
2023/12/29 09:13:14;;;;;;;8.70;7.70;;;;;;;17.85;41.86;99350.73;108337;1253;59780;-59
2023/12/29 09:16:26;;;;;;;9.40;7.40;;;;;;;17.52;42.38;99345.45;108368;1253;59821;-59
2023/12/29 09:19:44;;;;;;;9.70;7.40;;;;;;;17.65;42.11;99338.83;108327;1253;73209;-59
2023/12/29 09:22:21;;;;;;;10.70;8.00;;;;;;;17.74;41.99;99336.35;108397;1253;69123;-63
2023/12/29 09:25:32;;;;;;;9.90;8.30;;;;;;;17.79;41.99;99330.27;108299;1252;73013;-63
2023/12/29 09:28:13;;;;;;;10.50;8.70;;;;;;;17.57;42.35;99329.33;108387;1253;59607;-61
2023/12/29 09:31:30;;;;;;;9.60;8.60;;;;;;;17.89;41.74;99329.89;108420;1251;58982;-63
2023/12/29 09:38:11;;;;;;;10.90;8.30;;;;;;;18.08;41.23;99328.95;108420;1252;69124;-62
2023/12/29 09:41:22;;;;;;;8.80;7.90;;;;;;;18.18;41.23;99330.65;108459;1253;72681;-62
2023/12/29 09:48:52;;;;;;;10.40;8.10;;;;;;;18.06;41.39;99333.02;108445;1252;60236;-65
2023/12/29 09:56:24;;;;;;;9.60;7.20;;;;;;;18.33;40.83;99323.27;108458;1251;69399;-64
2023/12/29 09:59:38;;;;;;;9.10;7.90;;;;;;;18.28;41.09;99329.34;108415;1251;72729;-64
2023/12/29 10:02:50;;;;;;;11.20;8.40;;;;;;;18.30;41.01;99322.61;108472;1253;60981;-65
2023/12/29 10:06:02;;;;;;;11.30;7.90;;;;;;;18.51;40.85;99323.02;108446;1251;59801;-68
2023/12/29 10:09:13;;;;;;;11.20;7.70;;;;;;;18.99;40.17;99309.02;108514;1251;72269;-66
2023/12/29 10:12:25;;;;;;;8.70;7.50;;;;;;;19.23;39.95;99303.83;108457;1253;71979;-65
2023/12/29 10:15:37;;;;;;;10.20;7.90;;;;;;;19.29;39.44;99301.59;108447;1253;72363;-65
2023/12/29 10:18:17;;;;;;;10.10;7.70;;;;;;;18.65;40.60;99297.27;108429;1253;60974;-66
2023/12/29 10:20:58;;;;;;;9.80;8.00;;;;;;;18.50;40.99;99298.14;108300;1252;59708;-66
2023/12/29 10:23:40;;;;;;;10.90;8.30;;;;;;;18.50;41.21;99298.09;108291;1253;73063;-66
2023/12/29 10:26:11;;;;;;;10.70;8.10;;;;;;;18.54;41.02;99295.84;108447;1252;69176;-66
2023/12/29 10:28:42;;;;;;;10.80;8.10;;;;;;;18.51;41.10;99298.19;108448;1250;72498;-67
2023/12/29 10:31:14;;;;;;;9.20;8.20;;;;;;;18.52;41.03;99290.68;108380;1253;61151;-67
2023/12/29 10:33:50;;;;;;;10.80;7.50;;;;;;;18.66;40.99;99291.83;108245;1251;59848;-66
2023/12/29 10:36:22;;;;;;;9.90;8.20;;;;;;;18.51;41.06;99290.74;108414;1253;72845;-65
2023/12/29 10:39:06;;;;;;;8.70;7.60;;;;;;;18.21;41.73;99291.58;108377;1251;69090;-67
2023/12/29 10:41:36;;;;;;;8.70;7.80;;;;;;;18.54;41.31;99293.54;108340;1251;73473;-67
2023/12/29 10:44:48;;;;;;;9.80;7.80;;;;;;;18.60;41.37;99289.64;108483;1251;60542;-68
2023/12/29 10:47:59;;;;;;;9.20;7.80;;;;;;;18.40;41.52;99283.48;108467;1252;59701;-68
2023/12/29 10:51:10;;;;;;;10.50;7.60;;;;;;;18.70;41.01;99280.82;108469;1251;72794;-67
2023/12/29 10:53:38;;;;;;;9.60;8.30;;;;;;;18.87;40.89;99283.05;108465;1251;68426;-67
2023/12/29 11:01:13;;;;;;;9.00;7.30;;;;;;;18.96;40.77;99283.17;108585;1251;61025;-67
2023/12/29 11:08:10;;;;;;;8.20;7.00;;;;;;;19.57;39.53;99285.83;108412;1250;73654;-67
2023/12/29 11:10:41;;;;;;;7.80;7.00;;;;;;;19.52;39.50;99289.95;108527;1251;69402;-66
2023/12/29 11:13:53;;;;;;;8.70;7.60;;;;;;;19.36;39.72;99282.98;108377;1252;73574;-67
2023/12/29 11:17:06;;;;;;;8.30;7.40;;;;;;;19.18;40.10;99279.73;108466;1252;60800;-69
2023/12/29 11:19:37;;;;;;;11.00;7.50;;;;;;;19.32;40.08;99278.38;108469;1251;59678;-69
2023/12/29 11:22:30;;;;;;;10.40;7.30;;;;;;;19.47;40.02;99277.23;108379;1250;72609;-69
2023/12/29 11:25:01;;;;;;;9.90;7.40;;;;;;;19.36;39.92;99278.33;108331;1256;68094;-69
2023/12/29 11:27:32;;;;;;;9.20;7.60;;;;;;;19.46;39.87;99275.02;108351;1253;72507;-67
2023/12/29 11:30:04;;;;;;;11.00;7.60;;;;;;;19.55;39.69;99272.46;108234;1256;61421;-67
2023/12/29 11:32:51;;;;;;;9.30;7.50;;;;;;;19.48;40.01;99272.73;108357;1251;59820;-68
2023/12/29 11:35:32;;;;;;;8.70;7.60;;;;;;;19.65;39.74;99267.15;108275;1251;73705;-69
2023/12/29 11:38:29;;;;;;;9.30;8.00;;;;;;;20.00;39.29;99260.27;108237;1250;69089;-69
2023/12/29 11:41:06;;;;;;;9.70;7.60;;;;;;;20.11;38.85;99254.52;108277;1253;72443;-69
2023/12/29 11:44:17;;;;;;;10.30;8.50;;;;;;;19.96;38.97;99254.35;108040;1256;62023;-68
2023/12/29 11:47:28;;;;;;;10.40;7.60;;;;;;;19.79;39.30;99245.40;108471;1251;59663;-67
2023/12/29 11:50:40;;;;;;;11.00;8.70;;;;;;;19.98;38.95;99237.64;108428;1253;73651;-67
2023/12/29 11:53:52;;;;;;;9.70;8.30;;;;;;;19.80;39.04;99237.99;108467;1252;70638;-67
2023/12/29 11:57:03;;;;;;;14.10;8.20;;;;;;;19.82;39.24;99242.44;108501;1251;72494;-69
2023/12/29 12:00:16;;;;;;;10.00;8.20;;;;;;;19.77;39.08;99236.10;108422;1251;61710;-69
2023/12/29 12:03:27;;;;;;;8.40;7.50;;;;;;;19.88;38.99;99237.16;108456;1251;59889;-66
2023/12/29 12:06:02;;;;;;;9.70;7.90;;;;;;;19.92;39.03;99234.67;108472;1251;74544;-66
2023/12/29 12:16:21;;;;;;;7.90;7.20;;;;;;;19.19;41.72;99236.10;100989;1296;602684;-66
2023/12/29 12:26:36;;;;;;;8.30;7.50;;;;;;;19.69;39.38;99224.70;104108;1276;72322;-64
2023/12/29 12:29:05;;;;;;;8.30;7.30;;;;;;;19.79;39.13;99227.27;104019;1257;321583;-64
2023/12/29 12:31:36;;;;;;;8.60;7.50;;;;;;;19.61;39.44;99223.45;105638;1257;72504;-65
2023/12/29 12:34:07;;;;;;;8.80;7.60;;;;;;;19.89;39.16;99223.20;105006;1258;61806;-64
